Terminal Aerodrome Forecast
Issued by NWS

Home | Current Version | Previous Version | Graphics & Text | Print | Product List | Glossary On
Versions: 1 2 3 4 5 6 7 8 9 10 11 12 13 14 15 16 17 18 19 20 21 22 23 24 25 26 27 28 29 30 31 32 33
000
FTUS43 KLOT 132000 AAC
TAFGYY
TAF AMD
KGYY 132001Z 1320/1418 03011KT 4SM -SHRA BR SCT003 BKN030
      TEMPO 1320/1323 2SM BR BKN003
     FM140000 18011KT 3SM SHRA BR OVC020
      TEMPO 1400/1401 2SM -TSRA OVC015CB
     FM140100 21016G23KT 4SM SHRA OVC009
      TEMPO 1401/1405 -TSRA OVC009CB
     FM140500 21016G23KT 4SM SHRA VCTS OVC009CB
     FM141000 36020G33KT 4SM RA BR OVC009=

USA.gov is the U.S. government's official web portal to all federal, state and local government web resources and services.